PWSweather.com
Personal Weather Stations
Station Observations
KWABLAIN13
Ptl Weather, Blaine, WA

Ptl WeatherBlaine, WA

Lat: 48.997393, Lon: -122.748614

Elevation: 57

Station Type: Davis Advantage Pro 2

http://www.ptlnet.net

Latest ConditionsUpdated 6:10:03 PM PDT Saturday, Oct 21, 2017
Currently Today's Max Today's Min Today's Average
Temperature 45.1°F7.3°C 47.1°F8.4°C 43.2°F6.2°C 44.6°F7.0°C
Dew Point 44.0°F6.7°C 46.0°F7.8°C 40.6°F4.8°C 42.7°F5.9°C
Winds 3.0 mph ENE4.8 kmh ENE 9.0 mph ENE14.5 kmh ENE - 3.1 mph 5.0 kmh
Wind Gusts 8.0 mph12.9 kmh 12.0 mph19.3 kmh - -
Humidity 96% 96% 87% 93%
Pressure 29.56 in1001.0 mb 29.89 in1012.2 mb 29.56 in1001.0 mb -
Hour Temp Dew Point Humidity Winds Wind Gusts Pressure Precip Precip Rate Daily Precip Total
06:10 PM 45.1°F7.3°C 44.0°F6.7°C 96% 3.0 mph ENE4.8 kmh ENE 8.0 mph12.9 kmh 29.56 in1001.0 mb 0.06 in1.5 mm 0.00 in0.0 mm 0.25 in6.4 mm
06:05 PM 45.1°F7.3°C 43.8°F6.6°C 95% 5.0 mph ENE8.0 kmh ENE 7.0 mph11.3 kmh 29.57 in1001.4 mb 0.06 in1.5 mm 0.01 in0.3 mm 0.25 in6.4 mm
05:50 PM 45.4°F7.4°C 44.3°F6.8°C 96% 4.0 mph ENE6.4 kmh ENE 7.0 mph11.3 kmh 29.57 in1001.4 mb 0.05 in1.3 mm 0.00 in0.0 mm 0.24 in6.1 mm
05:45 PM 45.5°F7.5°C 44.4°F6.9°C 96% 2.0 mph NE3.2 kmh NE 6.0 mph9.7 kmh 29.57 in1001.4 mb 0.05 in1.3 mm 0.04 in1.0 mm 0.24 in6.1 mm
05:30 PM 45.6°F7.6°C 44.5°F6.9°C 96% 3.0 mph E4.8 kmh E 3.0 mph4.8 kmh 29.58 in1001.7 mb 0.04 in1.0 mm 0.00 in0.0 mm 0.23 in5.8 mm
05:25 PM 45.6°F7.6°C 44.5°F6.9°C 96% 5.0 mph ENE8.0 kmh ENE 7.0 mph11.3 kmh 29.58 in1001.7 mb 0.05 in1.3 mm 0.00 in0.0 mm 0.23 in5.8 mm
05:10 PM 45.7°F7.6°C 44.4°F6.9°C 95% 1.0 mph E1.6 kmh E 10.0 mph16.1 kmh 29.59 in1002.0 mb 0.05 in1.3 mm 0.00 in0.0 mm 0.23 in5.8 mm
05:05 PM 45.7°F7.6°C 44.4°F6.9°C 95% 4.0 mph NE6.4 kmh NE 10.0 mph16.1 kmh 29.59 in1002.0 mb 0.05 in1.3 mm 0.00 in0.0 mm 0.23 in5.8 mm
04:50 PM 45.9°F7.7°C 44.8°F7.1°C 96% 5.0 mph E8.0 kmh E 7.0 mph11.3 kmh 29.59 in1002.0 mb 0.07 in1.8 mm 0.12 in3.0 mm 0.23 in5.8 mm
04:45 PM 46.0°F7.8°C 44.7°F7.1°C 95% 4.0 mph ENE6.4 kmh ENE 7.0 mph11.3 kmh 29.59 in1002.0 mb 0.06 in1.5 mm 0.00 in0.0 mm 0.22 in5.6 mm
04:30 PM 46.3°F7.9°C 45.2°F7.3°C 96% 4.0 mph NE6.4 kmh NE 4.0 mph6.4 kmh 29.61 in1002.7 mb 0.06 in1.5 mm 0.00 in0.0 mm 0.22 in5.6 mm
04:25 PM 46.3°F7.9°C 45.2°F7.3°C 96% 4.0 mph E6.4 kmh E 7.0 mph11.3 kmh 29.62 in1003.0 mb 0.06 in1.5 mm 0.00 in0.0 mm 0.22 in5.6 mm
04:10 PM 46.3°F7.9°C 45.2°F7.3°C 96% 4.0 mph ENE6.4 kmh ENE 10.0 mph16.1 kmh 29.63 in1003.4 mb 0.07 in1.8 mm 0.12 in3.0 mm 0.22 in5.6 mm
04:05 PM 46.2°F7.9°C 45.1°F7.3°C 96% 3.0 mph ESE4.8 kmh ESE 9.0 mph14.5 kmh 29.64 in1003.7 mb 0.06 in1.5 mm 0.00 in0.0 mm 0.21 in5.3 mm
03:50 PM 46.0°F7.8°C 44.9°F7.2°C 96% 3.0 mph ENE4.8 kmh ENE 3.0 mph4.8 kmh 29.65 in1004.1 mb 0.06 in1.5 mm 0.00 in0.0 mm 0.21 in5.3 mm
03:45 PM 47.1°F8.4°C 46.0°F7.8°C 96% 2.0 mph ENE3.2 kmh ENE 5.0 mph8.0 kmh 29.65 in1004.1 mb 0.06 in1.5 mm 0.00 in0.0 mm 0.21 in5.3 mm
03:30 PM 45.9°F7.7°C 44.8°F7.1°C 96% 2.0 mph NE3.2 kmh NE 4.0 mph6.4 kmh 29.67 in1004.7 mb 0.06 in1.5 mm 0.10 in2.5 mm 0.21 in5.3 mm
03:24 PM 45.9°F7.7°C 44.6°F7.0°C 95% 1.0 mph NE1.6 kmh NE 4.0 mph6.4 kmh 29.67 in1004.7 mb 0.05 in1.3 mm 0.04 in1.0 mm 0.20 in5.1 mm
03:10 PM 45.8°F7.7°C 44.7°F7.1°C 96% 2.0 mph ENE3.2 kmh ENE 5.0 mph8.0 kmh 29.68 in1005.1 mb 0.04 in1.0 mm 0.10 in2.5 mm 0.19 in4.8 mm
03:04 PM 45.7°F7.6°C 44.4°F6.9°C 95% 3.0 mph NE4.8 kmh NE 4.0 mph6.4 kmh 29.68 in1005.1 mb 0.03 in0.8 mm 0.01 in0.3 mm 0.18 in4.6 mm
02:50 PM 45.6°F7.6°C 44.3°F6.8°C 95% 2.0 mph NE3.2 kmh NE 6.0 mph9.7 kmh 29.69 in1005.4 mb 0.02 in0.5 mm 0.12 in3.0 mm 0.17 in4.3 mm
02:45 PM 45.6°F7.6°C 44.3°F6.8°C 95% 2.0 mph ENE3.2 kmh ENE 5.0 mph8.0 kmh 29.69 in1005.4 mb 0.01 in0.3 mm 0.00 in0.0 mm 0.16 in4.1 mm
02:29 PM 45.6°F7.6°C 44.3°F6.8°C 95% 2.0 mph NE3.2 kmh NE 7.0 mph11.3 kmh 29.69 in1005.4 mb 0.01 in0.3 mm 0.03 in0.8 mm 0.16 in4.1 mm
02:10 PM 45.6°F7.6°C 44.3°F6.8°C 95% 3.0 mph NE4.8 kmh NE 4.0 mph6.4 kmh 29.70 in1005.8 mb 0.00 in0.0 mm 0.00 in0.0 mm 0.15 in3.8 mm
02:05 PM 45.5°F7.5°C 44.2°F6.8°C 95% 2.0 mph ENE3.2 kmh ENE 5.0 mph8.0 kmh 29.70 in1005.8 mb 0.00 in0.0 mm 0.00 in0.0 mm 0.15 in3.8 mm
01:50 PM 45.6°F7.6°C 44.3°F6.8°C 95% 5.0 mph E8.0 kmh E 6.0 mph9.7 kmh 29.69 in1005.4 mb 0.00 in0.0 mm 0.00 in0.0 mm 0.15 in3.8 mm
01:45 PM 45.6°F7.6°C 44.3°F6.8°C 95% 3.0 mph NE4.8 kmh NE 6.0 mph9.7 kmh 29.70 in1005.8 mb 0.01 in0.3 mm 0.00 in0.0 mm 0.15 in3.8 mm
01:29 PM 45.6°F7.6°C 44.3°F6.8°C 95% 3.0 mph E4.8 kmh E 5.0 mph8.0 kmh 29.70 in1005.8 mb 0.01 in0.3 mm 0.00 in0.0 mm 0.15 in3.8 mm
01:25 PM 45.5°F7.5°C 44.2°F6.8°C 95% 3.0 mph E4.8 kmh E 3.0 mph4.8 kmh 29.70 in1005.8 mb 0.01 in0.3 mm 0.00 in0.0 mm 0.15 in3.8 mm
01:09 PM 45.4°F7.4°C 44.1°F6.7°C 95% 3.0 mph ENE4.8 kmh ENE 8.0 mph12.9 kmh 29.71 in1006.1 mb 0.01 in0.3 mm 0.00 in0.0 mm 0.15 in3.8 mm
01:05 PM 45.3°F7.4°C 44.0°F6.7°C 95% Calm Calm 8.0 mph12.9 kmh 29.72 in1006.4 mb 0.01 in0.3 mm 0.00 in0.0 mm 0.15 in3.8 mm
12:50 PM 45.2°F7.3°C 43.9°F6.6°C 95% 2.0 mph NE3.2 kmh NE 8.0 mph12.9 kmh 29.72 in1006.4 mb 0.01 in0.3 mm 0.12 in3.0 mm 0.15 in3.8 mm
12:45 PM 45.0°F7.2°C 43.7°F6.5°C 95% 2.0 mph E3.2 kmh E 8.0 mph12.9 kmh 29.71 in1006.1 mb 0.00 in0.0 mm 0.00 in0.0 mm 0.14 in3.6 mm
12:29 PM 45.0°F7.2°C 43.7°F6.5°C 95% 4.0 mph NE6.4 kmh NE 12.0 mph19.3 kmh 29.72 in1006.4 mb 0.00 in0.0 mm 0.00 in0.0 mm 0.14 in3.6 mm
12:25 PM 44.9°F7.2°C 43.6°F6.4°C 95% 7.0 mph NE11.3 kmh NE 8.0 mph12.9 kmh 29.72 in1006.4 mb 0.00 in0.0 mm 0.00 in0.0 mm 0.14 in3.6 mm
12:10 PM 44.7°F7.1°C 43.1°F6.2°C 94% 1.0 mph ESE1.6 kmh ESE 1.0 mph1.6 kmh 29.72 in1006.4 mb 0.00 in0.0 mm 0.00 in0.0 mm 0.14 in3.6 mm
12:05 PM 44.7°F7.1°C 43.1°F6.2°C 94% 2.0 mph NNE3.2 kmh NNE 11.0 mph17.7 kmh 29.72 in1006.4 mb 0.00 in0.0 mm 0.00 in0.0 mm 0.14 in3.6 mm
11:50 AM 44.6°F7.0°C 43.0°F6.1°C 94% 3.0 mph ENE4.8 kmh ENE 9.0 mph14.5 kmh 29.72 in1006.4 mb 0.00 in0.0 mm 0.00 in0.0 mm 0.14 in3.6 mm
11:45 AM 44.6°F7.0°C 43.3°F6.3°C 95% 4.0 mph N6.4 kmh N 9.0 mph14.5 kmh 29.72 in1006.4 mb 0.00 in0.0 mm 0.00 in0.0 mm 0.14 in3.6 mm
11:30 AM 44.6°F7.0°C 43.3°F6.3°C 95% 3.0 mph ENE4.8 kmh ENE 8.0 mph12.9 kmh 29.73 in1006.8 mb 0.00 in0.0 mm 0.00 in0.0 mm 0.14 in3.6 mm
11:25 AM 44.5°F6.9°C 43.2°F6.2°C 95% 3.0 mph ENE4.8 kmh ENE 8.0 mph12.9 kmh 29.73 in1006.8 mb 0.00 in0.0 mm 0.00 in0.0 mm 0.14 in3.6 mm
11:09 AM 44.4°F6.9°C 43.1°F6.2°C 95% 4.0 mph ENE6.4 kmh ENE 8.0 mph12.9 kmh 29.73 in1006.8 mb 0.00 in0.0 mm 0.00 in0.0 mm 0.14 in3.6 mm
11:05 AM 44.3°F6.8°C 43.0°F6.1°C 95% 5.0 mph NE8.0 kmh NE 8.0 mph12.9 kmh 29.73 in1006.8 mb 0.00 in0.0 mm 0.00 in0.0 mm 0.14 in3.6 mm
10:50 AM 44.2°F6.8°C 42.9°F6.1°C 95% 7.0 mph ENE11.3 kmh ENE 10.0 mph16.1 kmh 29.72 in1006.4 mb 0.01 in0.3 mm 0.00 in0.0 mm 0.14 in3.6 mm
10:45 AM 44.1°F6.7°C 42.8°F6.0°C 95% 4.0 mph ENE6.4 kmh ENE 9.0 mph14.5 kmh 29.73 in1006.8 mb 0.01 in0.3 mm 0.00 in0.0 mm 0.14 in3.6 mm
10:30 AM 44.0°F6.7°C 42.7°F5.9°C 95% 6.0 mph NE9.7 kmh NE 9.0 mph14.5 kmh 29.73 in1006.8 mb 0.02 in0.5 mm 0.00 in0.0 mm 0.14 in3.6 mm
10:25 AM 43.9°F6.6°C 42.6°F5.9°C 95% Calm Calm 6.0 mph9.7 kmh 29.73 in1006.8 mb 0.02 in0.5 mm 0.00 in0.0 mm 0.14 in3.6 mm
10:10 AM 43.8°F6.6°C 42.5°F5.8°C 95% 3.0 mph ENE4.8 kmh ENE 3.0 mph4.8 kmh 29.73 in1006.8 mb 0.03 in0.8 mm 0.00 in0.0 mm 0.14 in3.6 mm
10:05 AM 43.8°F6.6°C 42.5°F5.8°C 95% 9.0 mph NE14.5 kmh NE 12.0 mph19.3 kmh 29.73 in1006.8 mb 0.03 in0.8 mm 0.00 in0.0 mm 0.14 in3.6 mm
09:49 AM 43.7°F6.5°C 42.4°F5.8°C 95% 3.0 mph NE4.8 kmh NE 9.0 mph14.5 kmh 29.73 in1006.8 mb 0.05 in1.3 mm 0.12 in3.0 mm 0.14 in3.6 mm
09:44 AM 43.6°F6.4°C 42.3°F5.7°C 95% 2.0 mph NE3.2 kmh NE 6.0 mph9.7 kmh 29.74 in1007.1 mb 0.04 in1.0 mm 0.00 in0.0 mm 0.13 in3.3 mm
09:30 AM 43.6°F6.4°C 42.3°F5.7°C 95% 5.0 mph E8.0 kmh E 10.0 mph16.1 kmh 29.75 in1007.5 mb 0.05 in1.3 mm 0.12 in3.0 mm 0.13 in3.3 mm
09:25 AM 43.6°F6.4°C 42.3°F5.7°C 95% 3.0 mph NE4.8 kmh NE 8.0 mph12.9 kmh 29.75 in1007.5 mb 0.04 in1.0 mm 0.00 in0.0 mm 0.12 in3.0 mm
09:09 AM 43.5°F6.4°C 42.2°F5.7°C 95% 3.0 mph NE4.8 kmh NE 9.0 mph14.5 kmh 29.76 in1007.8 mb 0.05 in1.3 mm 0.00 in0.0 mm 0.12 in3.0 mm
09:05 AM 43.5°F6.4°C 42.2°F5.7°C 95% 1.0 mph NE1.6 kmh NE 9.0 mph14.5 kmh 29.76 in1007.8 mb 0.05 in1.3 mm 0.00 in0.0 mm 0.12 in3.0 mm
08:49 AM 43.4°F6.3°C 42.1°F5.6°C 95% 7.0 mph NE11.3 kmh NE 8.0 mph12.9 kmh 29.76 in1007.8 mb 0.08 in2.0 mm 0.15 in3.8 mm 0.12 in3.0 mm
08:45 AM 43.3°F6.3°C 42.0°F5.6°C 95% 2.0 mph NE3.2 kmh NE 4.0 mph6.4 kmh 29.76 in1007.8 mb 0.07 in1.8 mm 0.00 in0.0 mm 0.11 in2.8 mm
08:29 AM 43.3°F6.3°C 42.0°F5.6°C 95% 1.0 mph NE1.6 kmh NE 10.0 mph16.1 kmh 29.77 in1008.1 mb 0.10 in2.5 mm 0.00 in0.0 mm 0.11 in2.8 mm
08:25 AM 43.2°F6.2°C 41.9°F5.5°C 95% 4.0 mph NE6.4 kmh NE 10.0 mph16.1 kmh 29.76 in1007.8 mb 0.10 in2.5 mm 0.04 in1.0 mm 0.11 in2.8 mm
08:10 AM 43.2°F6.2°C 41.6°F5.3°C 94% 2.0 mph NE3.2 kmh NE 11.0 mph17.7 kmh 29.76 in1007.8 mb 0.09 in2.3 mm 0.00 in0.0 mm 0.10 in2.5 mm
08:05 AM 43.2°F6.2°C 41.6°F5.3°C 94% 5.0 mph NE8.0 kmh NE 11.0 mph17.7 kmh 29.76 in1007.8 mb 0.09 in2.3 mm 0.03 in0.8 mm 0.10 in2.5 mm
07:49 AM 43.3°F6.3°C 41.7°F5.4°C 94% 1.0 mph NE1.6 kmh NE 8.0 mph12.9 kmh 29.76 in1007.8 mb 0.07 in1.8 mm 0.15 in3.8 mm 0.08 in2.0 mm
07:45 AM 43.4°F6.3°C 41.8°F5.4°C 94% 4.0 mph NE6.4 kmh NE 8.0 mph12.9 kmh 29.76 in1007.8 mb 0.06 in1.5 mm 0.04 in1.0 mm 0.07 in1.8 mm
07:30 AM 43.4°F6.3°C 41.5°F5.3°C 93% 3.0 mph NE4.8 kmh NE 11.0 mph17.7 kmh 29.77 in1008.1 mb 0.05 in1.3 mm 0.12 in3.0 mm 0.06 in1.5 mm
07:25 AM 43.5°F6.4°C 41.6°F5.3°C 93% 9.0 mph ENE14.5 kmh ENE 11.0 mph17.7 kmh 29.77 in1008.1 mb 0.04 in1.0 mm 0.04 in1.0 mm 0.05 in1.3 mm
07:10 AM 43.7°F6.5°C 41.8°F5.4°C 93% 5.0 mph NE8.0 kmh NE 5.0 mph8.0 kmh 29.78 in1008.5 mb 0.03 in0.8 mm 0.00 in0.0 mm 0.04 in1.0 mm
07:04 AM 43.7°F6.5°C 41.5°F5.3°C 92% 4.0 mph ENE6.4 kmh ENE 8.0 mph12.9 kmh 29.78 in1008.5 mb 0.04 in1.0 mm 0.01 in0.3 mm 0.04 in1.0 mm
06:50 AM 44.0°F6.7°C 41.6°F5.3°C 91% 5.0 mph ENE8.0 kmh ENE 7.0 mph11.3 kmh 29.79 in1008.8 mb 0.03 in0.8 mm 0.12 in3.0 mm 0.03 in0.8 mm
06:45 AM 44.2°F6.8°C 41.7°F5.4°C 91% 4.0 mph NE6.4 kmh NE 6.0 mph9.7 kmh 29.79 in1008.8 mb 0.02 in0.5 mm 0.00 in0.0 mm 0.02 in0.5 mm
06:30 AM 44.6°F7.0°C 42.1°F5.6°C 91% 2.0 mph ENE3.2 kmh ENE 8.0 mph12.9 kmh 29.81 in1009.5 mb 0.02 in0.5 mm 0.12 in3.0 mm 0.02 in0.5 mm
06:25 AM 44.6°F7.0°C 42.1°F5.6°C 91% 2.0 mph ENE3.2 kmh ENE 8.0 mph12.9 kmh 29.81 in1009.5 mb 0.01 in0.3 mm 0.00 in0.0 mm 0.01 in0.3 mm
06:10 AM 44.7°F7.1°C 42.0°F5.6°C 90% 3.0 mph E4.8 kmh E 3.0 mph4.8 kmh 29.81 in1009.5 mb 0.01 in0.3 mm 0.12 in3.0 mm 0.01 in0.3 mm
06:05 AM 44.7°F7.1°C 42.0°F5.6°C 90% 4.0 mph ENE6.4 kmh ENE 7.0 mph11.3 kmh 29.82 in1009.8 mb 0.00 in0.0 mm 0.00 in0.0 mm 0.00 in0.0 mm
05:50 AM 44.7°F7.1°C 41.7°F5.4°C 89% 3.0 mph E4.8 kmh E 3.0 mph4.8 kmh 29.82 in1009.8 mb 0.00 in0.0 mm 0.00 in0.0 mm 0.00 in0.0 mm
05:45 AM 44.7°F7.1°C 41.7°F5.4°C 89% 4.0 mph E6.4 kmh E 5.0 mph8.0 kmh 29.82 in1009.8 mb 0.00 in0.0 mm 0.00 in0.0 mm 0.00 in0.0 mm
05:30 AM 44.5°F6.9°C 41.2°F5.1°C 88% 3.0 mph ENE4.8 kmh ENE 7.0 mph11.3 kmh 29.82 in1009.8 mb 0.00 in0.0 mm 0.00 in0.0 mm 0.00 in0.0 mm
05:25 AM 44.5°F6.9°C 41.2°F5.1°C 88% 2.0 mph ENE3.2 kmh ENE 7.0 mph11.3 kmh 29.83 in1010.2 mb 0.00 in0.0 mm 0.00 in0.0 mm 0.00 in0.0 mm
05:10 AM 44.4°F6.9°C 40.8°F4.9°C 87% 2.0 mph ENE3.2 kmh ENE 6.0 mph9.7 kmh 29.83 in1010.2 mb 0.00 in0.0 mm 0.00 in0.0 mm 0.00 in0.0 mm
05:05 AM 44.3°F6.8°C 40.7°F4.8°C 87% Calm Calm 3.0 mph4.8 kmh 29.83 in1010.2 mb 0.00 in0.0 mm 0.00 in0.0 mm 0.00 in0.0 mm
04:50 AM 43.9°F6.6°C 40.6°F4.8°C 88% 2.0 mph ENE3.2 kmh ENE 2.0 mph3.2 kmh 29.84 in1010.5 mb 0.00 in0.0 mm 0.00 in0.0 mm 0.00 in0.0 mm
04:45 AM 43.8°F6.6°C 40.8°F4.9°C 89% 1.0 mph ENE1.6 kmh ENE 2.0 mph3.2 kmh 29.84 in1010.5 mb 0.00 in0.0 mm 0.00 in0.0 mm 0.00 in0.0 mm
04:30 AM 43.7°F6.5°C 40.7°F4.8°C 89% 1.0 mph NE1.6 kmh NE 5.0 mph8.0 kmh 29.84 in1010.5 mb 0.00 in0.0 mm 0.00 in0.0 mm 0.00 in0.0 mm
04:24 AM 43.8°F6.6°C 40.8°F4.9°C 89% 1.0 mph ENE1.6 kmh ENE 3.0 mph4.8 kmh 29.85 in1010.8 mb 0.00 in0.0 mm 0.00 in0.0 mm 0.00 in0.0 mm
04:10 AM 44.0°F6.7°C 40.7°F4.8°C 88% 1.0 mph ENE1.6 kmh ENE 1.0 mph1.6 kmh 29.85 in1010.8 mb 0.00 in0.0 mm 0.00 in0.0 mm 0.00 in0.0 mm
04:05 AM 44.0°F6.7°C 40.7°F4.8°C 88% 2.0 mph NE3.2 kmh NE 3.0 mph4.8 kmh 29.85 in1010.8 mb 0.00 in0.0 mm 0.00 in0.0 mm 0.00 in0.0 mm
03:50 AM 44.2°F6.8°C 40.9°F4.9°C 88% Calm Calm 4.0 mph6.4 kmh 29.86 in1011.2 mb 0.00 in0.0 mm 0.00 in0.0 mm 0.00 in0.0 mm
03:45 AM 44.3°F6.8°C 41.3°F5.2°C 89% 1.0 mph NE1.6 kmh NE 4.0 mph6.4 kmh 29.86 in1011.2 mb 0.00 in0.0 mm 0.00 in0.0 mm 0.00 in0.0 mm
03:29 AM 44.7°F7.1°C 41.4°F5.2°C 88% 1.0 mph NE1.6 kmh NE 3.0 mph4.8 kmh 29.87 in1011.5 mb 0.00 in0.0 mm 0.00 in0.0 mm 0.00 in0.0 mm
03:25 AM 44.9°F7.2°C 41.6°F5.3°C 88% 2.0 mph ENE3.2 kmh ENE 3.0 mph4.8 kmh 29.87 in1011.5 mb 0.00 in0.0 mm 0.00 in0.0 mm 0.00 in0.0 mm
03:10 AM 45.0°F7.2°C 41.4°F5.2°C 87% 2.0 mph ENE3.2 kmh ENE 4.0 mph6.4 kmh 29.87 in1011.5 mb 0.00 in0.0 mm 0.00 in0.0 mm 0.00 in0.0 mm
03:05 AM 44.9°F7.2°C 41.3°F5.2°C 87% 2.0 mph ENE3.2 kmh ENE 4.0 mph6.4 kmh 29.87 in1011.5 mb 0.00 in0.0 mm 0.00 in0.0 mm 0.00 in0.0 mm
02:50 AM 44.2°F6.8°C 41.2°F5.1°C 89% 4.0 mph E6.4 kmh E 6.0 mph9.7 kmh 29.88 in1011.9 mb 0.00 in0.0 mm 0.00 in0.0 mm 0.00 in0.0 mm
02:45 AM 43.9°F6.6°C 41.2°F5.1°C 90% 4.0 mph E6.4 kmh E 6.0 mph9.7 kmh 29.88 in1011.9 mb 0.00 in0.0 mm 0.00 in0.0 mm 0.00 in0.0 mm
02:29 AM 43.7°F6.5°C 41.0°F5.0°C 90% 3.0 mph ESE4.8 kmh ESE 5.0 mph8.0 kmh 29.88 in1011.9 mb 0.00 in0.0 mm 0.00 in0.0 mm 0.00 in0.0 mm
02:25 AM 43.7°F6.5°C 41.0°F5.0°C 90% 2.0 mph ESE3.2 kmh ESE 3.0 mph4.8 kmh 29.88 in1011.9 mb 0.00 in0.0 mm 0.00 in0.0 mm 0.00 in0.0 mm
02:10 AM 43.8°F6.6°C 41.4°F5.2°C 91% 5.0 mph ESE8.0 kmh ESE 6.0 mph9.7 kmh 29.88 in1011.9 mb 0.00 in0.0 mm 0.00 in0.0 mm 0.00 in0.0 mm
02:05 AM 43.8°F6.6°C 41.4°F5.2°C 91% 3.0 mph ESE4.8 kmh ESE 6.0 mph9.7 kmh 29.88 in1011.9 mb 0.00 in0.0 mm 0.00 in0.0 mm 0.00 in0.0 mm
01:50 AM 44.0°F6.7°C 41.6°F5.3°C 91% 2.0 mph E3.2 kmh E 6.0 mph9.7 kmh 29.88 in1011.9 mb 0.00 in0.0 mm 0.00 in0.0 mm 0.00 in0.0 mm
01:45 AM 44.1°F6.7°C 41.4°F5.2°C 90% 4.0 mph E6.4 kmh E 5.0 mph8.0 kmh 29.88 in1011.9 mb 0.00 in0.0 mm 0.00 in0.0 mm 0.00 in0.0 mm
01:30 AM 44.7°F7.1°C 42.0°F5.6°C 90% 2.0 mph SE3.2 kmh SE 4.0 mph6.4 kmh 29.88 in1011.9 mb 0.00 in0.0 mm 0.00 in0.0 mm 0.00 in0.0 mm
01:25 AM 44.8°F7.1°C 42.1°F5.6°C 90% 2.0 mph SE3.2 kmh SE 3.0 mph4.8 kmh 29.88 in1011.9 mb 0.00 in0.0 mm 0.00 in0.0 mm 0.00 in0.0 mm
01:10 AM 45.0°F7.2°C 42.3°F5.7°C 90% 5.0 mph SE8.0 kmh SE 5.0 mph8.0 kmh 29.88 in1011.9 mb 0.00 in0.0 mm 0.00 in0.0 mm 0.00 in0.0 mm
01:05 AM 45.1°F7.3°C 42.4°F5.8°C 90% 2.0 mph SE3.2 kmh SE 4.0 mph6.4 kmh 29.89 in1012.2 mb 0.00 in0.0 mm 0.00 in0.0 mm 0.00 in0.0 mm
12:50 AM 45.1°F7.3°C 42.6°F5.9°C 91% 4.0 mph SE6.4 kmh SE 8.0 mph12.9 kmh 29.89 in1012.2 mb 0.00 in0.0 mm 0.00 in0.0 mm 0.00 in0.0 mm
12:45 AM 45.1°F7.3°C 42.6°F5.9°C 91% 6.0 mph SSE9.7 kmh SSE 8.0 mph12.9 kmh 29.89 in1012.2 mb 0.00 in0.0 mm 0.00 in0.0 mm 0.00 in0.0 mm
12:30 AM 45.1°F7.3°C 42.4°F5.8°C 90% 2.0 mph SE3.2 kmh SE 5.0 mph8.0 kmh 29.89 in1012.2 mb 0.00 in0.0 mm 0.00 in0.0 mm 0.00 in0.0 mm
12:25 AM 45.1°F7.3°C 42.4°F5.8°C 90% 3.0 mph SE4.8 kmh SE 5.0 mph8.0 kmh 29.89 in1012.2 mb 0.00 in0.0 mm 0.00 in0.0 mm 0.00 in0.0 mm
12:10 AM 44.8°F7.1°C 41.8°F5.4°C 89% 5.0 mph SE8.0 kmh SE 7.0 mph11.3 kmh 29.89 in1012.2 mb 0.00 in0.0 mm 0.00 in0.0 mm 0.00 in0.0 mm
12:05 AM 44.7°F7.1°C 41.4°F5.2°C 88% 4.0 mph SSE6.4 kmh SSE 6.0 mph9.7 kmh 29.89 in1012.2 mb 0.00 in0.0 mm 0.00 in0.0 mm 0.00 in0.0 mm